sensor_id;sensor_type;location;lat;lon;timestamp;pressure;altitude;pressure_sealevel;temperature;humidity
10060;BME280;5069;49.306;8.636;2023-11-18T00:02:31;101495.44;;;8.11;100.00
10060;BME280;5069;49.306;8.636;2023-11-18T00:05:35;101498.06;;;8.11;100.00
10060;BME280;5069;49.306;8.636;2023-11-18T00:08:36;101501.56;;;8.10;100.00
10060;BME280;5069;49.306;8.636;2023-11-18T00:11:37;101499.81;;;8.09;100.00
10060;BME280;5069;49.306;8.636;2023-11-18T00:14:39;101500.72;;;8.05;100.00
10060;BME280;5069;49.306;8.636;2023-11-18T00:17:41;101505.13;;;8.01;100.00
10060;BME280;5069;49.306;8.636;2023-11-18T00:20:43;101504.25;;;7.99;100.00
10060;BME280;5069;49.306;8.636;2023-11-18T00:23:44;101509.50;;;7.98;100.00
10060;BME280;5069;49.306;8.636;2023-11-18T00:26:46;101513.03;;;7.97;100.00
10060;BME280;5069;49.306;8.636;2023-11-18T00:29:48;101514.75;;;7.98;100.00
10060;BME280;5069;49.306;8.636;2023-11-18T00:32:49;101507.75;;;8.00;100.00
10060;BME280;5069;49.306;8.636;2023-11-18T00:35:51;101506.91;;;7.95;100.00
10060;BME280;5069;49.306;8.636;2023-11-18T00:38:53;101503.41;;;7.96;100.00
10060;BME280;5069;49.306;8.636;2023-11-18T00:41:55;101509.53;;;7.95;100.00
10060;BME280;5069;49.306;8.636;2023-11-18T00:44:57;101506.94;;;7.92;100.00
10060;BME280;5069;49.306;8.636;2023-11-18T00:47:58;101506.91;;;7.93;100.00
10060;BME280;5069;49.306;8.636;2023-11-18T00:51:00;101506.91;;;7.95;100.00
10060;BME280;5069;49.306;8.636;2023-11-18T00:54:02;101501.69;;;7.92;100.00
10060;BME280;5069;49.306;8.636;2023-11-18T00:57:06;101507.81;;;7.91;100.00
10060;BME280;5069;49.306;8.636;2023-11-18T01:00:11;101505.16;;;7.92;100.00
10060;BME280;5069;49.306;8.636;2023-11-18T01:03:15;101509.56;;;7.92;100.00
10060;BME280;5069;49.306;8.636;2023-11-18T01:06:17;101510.44;;;7.89;100.00
10060;BME280;5069;49.306;8.636;2023-11-18T01:09:18;101513.06;;;7.91;100.00
10060;BME280;5069;49.306;8.636;2023-11-18T01:12:20;101521.81;;;7.91;100.00
10060;BME280;5069;49.306;8.636;2023-11-18T01:15:22;101520.91;;;7.92;100.00
10060;BME280;5069;49.306;8.636;2023-11-18T01:18:24;101520.91;;;7.95;100.00
10060;BME280;5069;49.306;8.636;2023-11-18T01:21:26;101534.91;;;7.96;100.00
10060;BME280;5069;49.306;8.636;2023-11-18T01:24:28;101518.28;;;7.97;100.00
10060;BME280;5069;49.306;8.636;2023-11-18T01:27:30;101518.28;;;7.95;100.00
10060;BME280;5069;49.306;8.636;2023-11-18T01:30:31;101521.78;;;7.93;100.00
10060;BME280;5069;49.306;8.636;2023-11-18T01:33:34;101517.47;;;7.85;100.00
10060;BME280;5069;49.306;8.636;2023-11-18T01:36:38;101517.44;;;7.88;100.00
10060;BME280;5069;49.306;8.636;2023-11-18T01:39:40;101519.19;;;7.89;100.00
10060;BME280;5069;49.306;8.636;2023-11-18T01:42:45;101516.56;;;7.89;100.00
10060;BME280;5069;49.306;8.636;2023-11-18T01:45:48;101520.94;;;7.89;100.00
10060;BME280;5069;49.306;8.636;2023-11-18T01:48:50;101515.69;;;7.89;100.00
10060;BME280;5069;49.306;8.636;2023-11-18T01:51:53;101523.56;;;7.91;100.00
10060;BME280;5069;49.306;8.636;2023-11-18T01:54:56;101520.06;;;7.90;100.00
10060;BME280;5069;49.306;8.636;2023-11-18T01:57:58;101516.59;;;7.83;100.00
10060;BME280;5069;49.306;8.636;2023-11-18T02:01:00;101522.72;;;7.84;100.00
10060;BME280;5069;49.306;8.636;2023-11-18T02:04:02;101523.59;;;7.81;100.00
10060;BME280;5069;49.306;8.636;2023-11-18T02:07:04;101529.72;;;7.82;100.00
10060;BME280;5069;49.306;8.636;2023-11-18T02:10:10;101523.63;;;7.78;100.00
10060;BME280;5069;49.306;8.636;2023-11-18T02:13:32;101526.25;;;7.77;100.00
10060;BME280;5069;49.306;8.636;2023-11-18T02:16:35;101518.38;;;7.72;100.00
10060;BME280;5069;49.306;8.636;2023-11-18T02:19:39;101518.41;;;7.68;100.00
10060;BME280;5069;49.306;8.636;2023-11-18T02:22:42;101528.88;;;7.69;100.00
10060;BME280;5069;49.306;8.636;2023-11-18T02:25:47;101531.50;;;7.69;100.00
10060;BME280;5069;49.306;8.636;2023-11-18T02:28:49;101537.66;;;7.65;100.00
10060;BME280;5069;49.306;8.636;2023-11-18T02:31:53;101532.44;;;7.53;100.00
10060;BME280;5069;49.306;8.636;2023-11-18T02:38:11;101540.31;;;7.55;100.00
10060;BME280;5069;49.306;8.636;2023-11-18T02:41:15;101542.94;;;7.56;100.00
10060;BME280;5069;49.306;8.636;2023-11-18T02:44:21;101533.28;;;7.58;100.00
10060;BME280;5069;49.306;8.636;2023-11-18T02:47:26;101534.19;;;7.57;100.00
10060;BME280;5069;49.306;8.636;2023-11-18T02:50:28;101540.28;;;7.59;100.00
10060;BME280;5069;49.306;8.636;2023-11-18T02:53:30;101531.56;;;7.62;100.00
10060;BME280;5069;49.306;8.636;2023-11-18T02:56:32;101521.94;;;7.62;100.00
10060;BME280;5069;49.306;8.636;2023-11-18T02:59:34;101529.78;;;7.64;100.00
10060;BME280;5069;49.306;8.636;2023-11-18T03:02:36;101530.69;;;7.63;100.00
10060;BME280;5069;49.306;8.636;2023-11-18T03:05:39;101523.69;;;7.60;100.00
10060;BME280;5069;49.306;8.636;2023-11-18T03:08:40;101525.44;;;7.63;100.00
10060;BME280;5069;49.306;8.636;2023-11-18T03:11:43;101522.81;;;7.63;100.00
10060;BME280;5069;49.306;8.636;2023-11-18T03:14:45;101514.06;;;7.58;100.00
10060;BME280;5069;49.306;8.636;2023-11-18T03:17:48;101521.94;;;7.61;100.00
10060;BME280;5069;49.306;8.636;2023-11-18T03:20:51;101513.16;;;7.66;100.00
10060;BME280;5069;49.306;8.636;2023-11-18T03:23:52;101516.63;;;7.71;100.00
10060;BME280;5069;49.306;8.636;2023-11-18T03:26:55;101516.63;;;7.70;100.00
10060;BME280;5069;49.306;8.636;2023-11-18T03:29:56;101515.78;;;7.63;100.00
10060;BME280;5069;49.306;8.636;2023-11-18T03:32:58;101522.81;;;7.61;100.00
10060;BME280;5069;49.306;8.636;2023-11-18T03:35:59;101528.03;;;7.66;100.00
10060;BME280;5069;49.306;8.636;2023-11-18T03:39:01;101527.19;;;7.62;100.00
10060;BME280;5069;49.306;8.636;2023-11-18T03:42:03;101521.94;;;7.62;100.00
10060;BME280;5069;49.306;8.636;2023-11-18T03:45:05;101518.41;;;7.63;100.00
10060;BME280;5069;49.306;8.636;2023-11-18T03:48:07;101520.16;;;7.69;100.00
10060;BME280;5069;49.306;8.636;2023-11-18T03:51:09;101529.81;;;7.62;100.00
10060;BME280;5069;49.306;8.636;2023-11-18T03:54:10;101525.44;;;7.63;100.00
10060;BME280;5069;49.306;8.636;2023-11-18T03:57:13;101526.28;;;7.63;100.00
10060;BME280;5069;49.306;8.636;2023-11-18T04:00:17;101528.91;;;7.66;100.00
10060;BME280;5069;49.306;8.636;2023-11-18T04:03:21;101529.78;;;7.64;100.00
10060;BME280;5069;49.306;8.636;2023-11-18T04:06:22;101537.66;;;7.59;100.00
10060;BME280;5069;49.306;8.636;2023-11-18T04:09:25;101528.94;;;7.62;100.00
10060;BME280;5069;49.306;8.636;2023-11-18T04:12:28;101544.66;;;7.63;100.00
10060;BME280;5069;49.306;8.636;2023-11-18T04:15:32;101529.78;;;7.65;100.00
10060;BME280;5069;49.306;8.636;2023-11-18T04:18:33;101529.78;;;7.65;100.00
10060;BME280;5069;49.306;8.636;2023-11-18T04:21:35;101528.03;;;7.64;100.00
10060;BME280;5069;49.306;8.636;2023-11-18T04:24:36;101519.28;;;7.65;100.00
10060;BME280;5069;49.306;8.636;2023-11-18T04:27:38;101511.41;;;7.65;100.00
10060;BME280;5069;49.306;8.636;2023-11-18T04:30:42;101507.91;;;7.63;100.00
10060;BME280;5069;49.306;8.636;2023-11-18T04:33:44;101512.31;;;7.58;100.00
10060;BME280;5069;49.306;8.636;2023-11-18T04:36:45;101506.19;;;7.62;100.00
10060;BME280;5069;49.306;8.636;2023-11-18T04:39:47;101512.31;;;7.63;100.00
10060;BME280;5069;49.306;8.636;2023-11-18T04:42:48;101512.28;;;7.64;100.00
10060;BME280;5069;49.306;8.636;2023-11-18T04:45:50;101513.19;;;7.54;100.00
10060;BME280;5069;49.306;8.636;2023-11-18T04:48:51;101516.69;;;7.55;100.00
10060;BME280;5069;49.306;8.636;2023-11-18T04:51:56;101512.31;;;7.54;100.00
10060;BME280;5069;49.306;8.636;2023-11-18T04:54:57;101518.47;;;7.57;100.00
10060;BME280;5069;49.306;8.636;2023-11-18T04:58:00;101509.72;;;7.55;100.00
10060;BME280;5069;49.306;8.636;2023-11-18T05:01:02;101511.47;;;7.50;100.00
10060;BME280;5069;49.306;8.636;2023-11-18T05:04:03;101509.72;;;7.49;100.00
10060;BME280;5069;49.306;8.636;2023-11-18T05:07:05;101528.94;;;7.53;100.00
10060;BME280;5069;49.306;8.636;2023-11-18T05:10:08;101523.72;;;7.51;100.00
10060;BME280;5069;49.306;8.636;2023-11-18T05:13:11;101521.09;;;7.46;100.00
10060;BME280;5069;49.306;8.636;2023-11-18T05:16:12;101515.84;;;7.46;100.00
10060;BME280;5069;49.306;8.636;2023-11-18T05:19:14;101515.88;;;7.37;100.00
10060;BME280;5069;49.306;8.636;2023-11-18T05:22:15;101510.63;;;7.39;100.00
10060;BME280;5069;49.306;8.636;2023-11-18T05:25:17;101518.50;;;7.36;100.00
10060;BME280;5069;49.306;8.636;2023-11-18T05:28:18;101526.38;;;7.37;100.00
10060;BME280;5069;49.306;8.636;2023-11-18T05:31:21;101520.25;;;7.40;100.00
10060;BME280;5069;49.306;8.636;2023-11-18T05:34:22;101522.00;;;7.44;100.00
10060;BME280;5069;49.306;8.636;2023-11-18T05:37:24;101521.09;;;7.40;100.00
10060;BME280;5069;49.306;8.636;2023-11-18T05:40:26;101530.75;;;7.46;100.00
10060;BME280;5069;49.306;8.636;2023-11-18T05:43:31;101516.75;;;7.45;100.00
10060;BME280;5069;49.306;8.636;2023-11-18T05:46:43;101517.59;;;7.43;100.00
10060;BME280;5069;49.306;8.636;2023-11-18T05:49:47;101508.84;;;7.47;100.00
10060;BME280;5069;49.306;8.636;2023-11-18T05:52:49;101501.03;;;7.38;100.00
10060;BME280;5069;49.306;8.636;2023-11-18T05:55:50;101494.91;;;7.34;100.00
10060;BME280;5069;49.306;8.636;2023-11-18T05:58:52;101483.56;;;7.28;100.00
10060;BME280;5069;49.306;8.636;2023-11-18T06:01:56;101491.41;;;7.25;100.00
10060;BME280;5069;49.306;8.636;2023-11-18T06:04:58;101497.56;;;7.18;100.00
10060;BME280;5069;49.306;8.636;2023-11-18T06:08:00;101490.56;;;7.14;100.00
10060;BME280;5069;49.306;8.636;2023-11-18T06:11:02;101501.94;;;7.14;100.00
10060;BME280;5069;49.306;8.636;2023-11-18T06:23:07;101518.53;;;7.21;100.00
10060;BME280;5069;49.306;8.636;2023-11-18T06:26:09;101513.28;;;7.21;100.00
10060;BME280;5069;49.306;8.636;2023-11-18T06:29:14;101515.03;;;7.19;100.00
10060;BME280;5069;49.306;8.636;2023-11-18T06:32:16;101518.53;;;7.21;100.00
10060;BME280;5069;49.306;8.636;2023-11-18T06:35:18;101516.81;;;7.23;100.00
10060;BME280;5069;49.306;8.636;2023-11-18T06:38:21;101516.78;;;7.29;100.00
10060;BME280;5069;49.306;8.636;2023-11-18T06:41:23;101518.53;;;7.33;100.00
10060;BME280;5069;49.306;8.636;2023-11-18T06:44:27;101511.56;;;7.23;100.00
10060;BME280;5069;49.306;8.636;2023-11-18T06:47:28;101500.16;;;7.33;100.00
10060;BME280;5069;49.306;8.636;2023-11-18T06:50:33;101511.53;;;7.30;100.00
10060;BME280;5069;49.306;8.636;2023-11-18T06:53:36;101510.63;;;7.30;100.00
10060;BME280;5069;49.306;8.636;2023-11-18T06:56:39;101508.03;;;7.27;100.00
10060;BME280;5069;49.306;8.636;2023-11-18T06:59:44;101518.50;;;7.30;100.00
10060;BME280;5069;49.306;8.636;2023-11-18T07:02:45;101515.03;;;7.25;100.00
10060;BME280;5069;49.306;8.636;2023-11-18T07:05:48;101530.75;;;7.31;100.00
10060;BME280;5069;49.306;8.636;2023-11-18T07:08:51;101526.41;;;7.25;100.00
10060;BME280;5069;49.306;8.636;2023-11-18T07:11:52;101525.53;;;7.28;100.00
10060;BME280;5069;49.306;8.636;2023-11-18T07:14:54;101536.88;;;7.33;100.00
10060;BME280;5069;49.306;8.636;2023-11-18T07:17:55;101526.41;;;7.34;100.00
10060;BME280;5069;49.306;8.636;2023-11-18T07:21:01;101529.88;;;7.45;100.00
10060;BME280;5069;49.306;8.636;2023-11-18T07:24:04;101528.97;;;7.50;100.00
10060;BME280;5069;49.306;8.636;2023-11-18T07:27:06;101530.72;;;7.44;100.00
10060;BME280;5069;49.306;8.636;2023-11-18T07:30:08;101519.31;;;7.53;100.00
10060;BME280;5069;49.306;8.636;2023-11-18T07:33:18;101507.06;;;7.58;100.00
10060;BME280;5069;49.306;8.636;2023-11-18T07:36:22;101507.97;;;7.56;100.00
10060;BME280;5069;49.306;8.636;2023-11-18T07:39:24;101513.22;;;7.57;100.00
10060;BME280;5069;49.306;8.636;2023-11-18T07:42:37;101511.47;;;7.56;100.00
10060;BME280;5069;49.306;8.636;2023-11-18T07:45:39;101515.78;;;7.63;100.00
10060;BME280;5069;49.306;8.636;2023-11-18T07:48:41;101511.41;;;7.65;100.00
10060;BME280;5069;49.306;8.636;2023-11-18T07:51:43;101521.91;;;7.65;100.00
10060;BME280;5069;49.306;8.636;2023-11-18T07:54:44;101519.22;;;7.76;100.00
10060;BME280;5069;49.306;8.636;2023-11-18T07:57:46;101521.88;;;7.76;100.00
10060;BME280;5069;49.306;8.636;2023-11-18T08:00:48;101518.38;;;7.78;100.00
10060;BME280;5069;49.306;8.636;2023-11-18T08:03:50;101528.88;;;7.80;100.00
10060;BME280;5069;49.306;8.636;2023-11-18T08:06:54;101526.22;;;7.81;100.00
10060;BME280;5069;49.306;8.636;2023-11-18T08:09:56;101524.47;;;7.82;100.00
10060;BME280;5069;49.306;8.636;2023-11-18T08:12:58;101529.72;;;7.80;100.00
10060;BME280;5069;49.306;8.636;2023-11-18T08:16:00;101523.56;;;7.86;100.00
10060;BME280;5069;49.306;8.636;2023-11-18T08:19:02;101534.09;;;7.81;100.00
10060;BME280;5069;49.306;8.636;2023-11-18T08:22:04;101532.31;;;7.86;100.00
10060;BME280;5069;49.306;8.636;2023-11-18T08:25:08;101528.78;;;7.94;100.00
10060;BME280;5069;49.306;8.636;2023-11-18T08:28:09;101521.78;;;7.96;100.00
10060;BME280;5069;49.306;8.636;2023-11-18T08:31:13;101523.50;;;7.98;100.00
10060;BME280;5069;49.306;8.636;2023-11-18T08:34:17;101536.63;;;8.00;100.00
10060;BME280;5069;49.306;8.636;2023-11-18T08:37:20;101529.63;;;7.99;100.00
10060;BME280;5069;49.306;8.636;2023-11-18T08:40:22;101527.91;;;7.93;100.00
10060;BME280;5069;49.306;8.636;2023-11-18T08:43:24;101517.38;;;8.01;100.00
10060;BME280;5069;49.306;8.636;2023-11-18T08:46:26;101501.59;;;8.05;100.00
10060;BME280;5069;49.306;8.636;2023-11-18T08:49:28;101514.69;;;8.13;100.00
10060;BME280;5069;49.306;8.636;2023-11-18T08:52:35;101504.19;;;8.13;100.00
10060;BME280;5069;49.306;8.636;2023-11-18T08:55:38;101493.66;;;8.16;100.00
10060;BME280;5069;49.306;8.636;2023-11-18T08:58:44;101503.25;;;8.21;100.00
10060;BME280;5069;49.306;8.636;2023-11-18T09:01:46;101501.44;;;8.29;100.00
10060;BME280;5069;49.306;8.636;2023-11-18T09:04:50;101497.06;;;8.27;100.00
10060;BME280;5069;49.306;8.636;2023-11-18T09:07:53;101495.31;;;8.35;100.00
10060;BME280;5069;49.306;8.636;2023-11-18T09:10:59;101509.34;;;8.34;100.00
10060;BME280;5069;49.306;8.636;2023-11-18T09:14:01;101501.44;;;8.37;100.00
10060;BME280;5069;49.306;8.636;2023-11-18T09:17:05;101496.19;;;8.36;100.00
10060;BME280;5069;49.306;8.636;2023-11-18T09:20:08;101491.84;;;8.30;100.00
10060;BME280;5069;49.306;8.636;2023-11-18T09:23:13;101490.06;;;8.34;100.00
10060;BME280;5069;49.306;8.636;2023-11-18T09:26:17;101490.03;;;8.38;100.00
10060;BME280;5069;49.306;8.636;2023-11-18T09:29:19;101489.09;;;8.45;100.00
10060;BME280;5069;49.306;8.636;2023-11-18T09:32:25;101489.09;;;8.48;100.00
10060;BME280;5069;49.306;8.636;2023-11-18T09:35:27;101496.88;;;8.60;100.00
10060;BME280;5069;49.306;8.636;2023-11-18T09:38:31;101492.44;;;8.68;100.00
10060;BME280;5069;49.306;8.636;2023-11-18T09:41:32;101485.41;;;8.70;100.00
10060;BME280;5069;49.306;8.636;2023-11-18T09:44:36;101482.72;;;8.77;100.00
10060;BME280;5069;49.306;8.636;2023-11-18T09:47:42;101484.44;;;8.79;100.00
10060;BME280;5069;49.306;8.636;2023-11-18T09:50:45;101488.78;;;8.85;100.00
10060;BME280;5069;49.306;8.636;2023-11-18T09:53:53;101491.41;;;8.85;100.00
10060;BME280;5069;49.306;8.636;2023-11-18T09:57:08;101484.31;;;8.93;100.00
10060;BME280;5069;49.306;8.636;2023-11-18T10:00:16;101486.03;;;8.97;100.00
10060;BME280;5069;49.306;8.636;2023-11-18T10:03:27;101490.13;;;9.24;100.00
10060;BME280;5069;49.306;8.636;2023-11-18T10:06:30;101496.06;;;9.42;100.00
10060;BME280;5069;49.306;8.636;2023-11-18T10:09:35;101487.28;;;9.43;100.00
10060;BME280;5069;49.306;8.636;2023-11-18T10:12:44;101483.94;;;9.29;100.00
10060;BME280;5069;49.306;8.636;2023-11-18T10:15:46;101478.53;;;9.41;100.00
10060;BME280;5069;49.306;8.636;2023-11-18T10:18:52;101478.59;;;9.35;100.00
10060;BME280;5069;49.306;8.636;2023-11-18T10:21:55;101466.44;;;9.28;100.00
10060;BME280;5069;49.306;8.636;2023-11-18T10:24:58;101464.63;;;9.33;100.00
10060;BME280;5069;49.306;8.636;2023-11-18T10:28:02;101464.56;;;9.38;100.00
10060;BME280;5069;49.306;8.636;2023-11-18T10:31:07;101465.50;;;9.31;100.00
10060;BME280;5069;49.306;8.636;2023-11-18T10:34:14;101466.31;;;9.37;100.00
10060;BME280;5069;49.306;8.636;2023-11-18T10:37:19;101465.34;;;9.44;100.00
10060;BME280;5069;49.306;8.636;2023-11-18T10:40:22;101453.22;;;9.31;100.00
10060;BME280;5069;49.306;8.636;2023-11-18T10:43:25;101457.66;;;9.26;100.00
10060;BME280;5069;49.306;8.636;2023-11-18T10:46:27;101458.41;;;9.37;100.00
10060;BME280;5069;49.306;8.636;2023-11-18T10:49:29;101442.50;;;9.46;100.00
10060;BME280;5069;49.306;8.636;2023-11-18T10:52:37;101442.56;;;9.43;100.00
10060;BME280;5069;49.306;8.636;2023-11-18T10:55:42;101445.13;;;9.49;100.00
10060;BME280;5069;49.306;8.636;2023-11-18T10:58:45;101447.69;;;9.54;100.00
10060;BME280;5069;49.306;8.636;2023-11-18T11:01:47;101445.94;;;9.51;100.00
10060;BME280;5069;49.306;8.636;2023-11-18T11:04:51;101434.59;;;9.49;100.00
10060;BME280;5069;49.306;8.636;2023-11-18T11:07:54;101431.94;;;9.49;100.00
10060;BME280;5069;49.306;8.636;2023-11-18T11:10:56;101425.81;;;9.50;100.00
10060;BME280;5069;49.306;8.636;2023-11-18T11:14:00;101433.84;;;9.37;100.00
10060;BME280;5069;49.306;8.636;2023-11-18T11:17:08;101431.19;;;9.40;100.00
10060;BME280;5069;49.306;8.636;2023-11-18T11:20:13;101410.03;;;9.47;100.00
10060;BME280;5069;49.306;8.636;2023-11-18T11:23:35;101399.47;;;9.50;100.00
10060;BME280;5069;49.306;8.636;2023-11-18T11:26:50;101391.69;;;9.43;100.00
10060;BME280;5069;49.306;8.636;2023-11-18T11:30:06;101396.00;;;9.48;100.00
10060;BME280;5069;49.306;8.636;2023-11-18T11:36:21;101378.38;;;9.53;100.00
10060;BME280;5069;49.306;8.636;2023-11-18T11:39:25;101371.44;;;9.46;100.00
10060;BME280;5069;49.306;8.636;2023-11-18T11:42:31;101361.69;;;9.54;100.00
10060;BME280;5069;49.306;8.636;2023-11-18T11:45:33;101346.78;;;9.53;100.00
10060;BME280;5069;49.306;8.636;2023-11-18T11:48:38;101345.97;;;9.48;100.00
10060;BME280;5069;49.306;8.636;2023-11-18T11:51:45;101339.75;;;9.56;100.00
10060;BME280;5069;49.306;8.636;2023-11-18T11:55:01;101342.41;;;9.52;100.00
10060;BME280;5069;49.306;8.636;2023-11-18T11:58:25;101336.09;;;9.63;100.00
10060;BME280;5069;49.306;8.636;2023-11-18T12:01:35;101318.63;;;9.59;100.00
10060;BME280;5069;49.306;8.636;2023-11-18T12:04:39;101314.41;;;9.47;100.00
10060;BME280;5069;49.306;8.636;2023-11-18T12:07:43;101312.66;;;9.46;100.00
10060;BME280;5069;49.306;8.636;2023-11-18T12:10:54;101310.91;;;9.48;100.00
10060;BME280;5069;49.306;8.636;2023-11-18T12:17:10;101304.84;;;9.41;100.00
10060;BME280;5069;49.306;8.636;2023-11-18T12:20:43;101304.03;;;9.38;100.00
10060;BME280;5069;49.306;8.636;2023-11-18T12:24:15;101299.56;;;9.41;100.00
10060;BME280;5069;49.306;8.636;2023-11-18T12:30:42;101295.06;;;9.51;100.00
10060;BME280;5069;49.306;8.636;2023-11-18T12:34:00;101295.88;;;9.54;100.00
10060;BME280;5069;49.306;8.636;2023-11-18T12:37:23;101290.66;;;9.51;100.00
10060;BME280;5069;49.306;8.636;2023-11-18T12:40:56;101297.75;;;9.46;100.00
10060;BME280;5069;49.306;8.636;2023-11-18T12:44:29;101281.22;;;9.38;100.00
10060;BME280;5069;49.306;8.636;2023-11-18T12:47:38;101265.38;;;9.40;100.00
10060;BME280;5069;49.306;8.636;2023-11-18T12:50:41;101273.25;;;9.41;100.00
10060;BME280;5069;49.306;8.636;2023-11-18T12:53:48;101266.25;;;9.42;100.00
10060;BME280;5069;49.306;8.636;2023-11-18T12:56:55;101271.53;;;9.40;100.00
10060;BME280;5069;49.306;8.636;2023-11-18T12:59:57;101267.09;;;9.44;100.00
10060;BME280;5069;49.306;8.636;2023-11-18T13:02:59;101265.25;;;9.50;100.00
10060;BME280;5069;49.306;8.636;2023-11-18T13:06:00;101245.84;;;9.56;100.00
10060;BME280;5069;49.306;8.636;2023-11-18T13:09:03;101237.97;;;9.54;100.00
10060;BME280;5069;49.306;8.636;2023-11-18T13:12:11;101233.56;;;9.57;100.00
10060;BME280;5069;49.306;8.636;2023-11-18T13:15:16;101225.66;;;9.57;100.00
10060;BME280;5069;49.306;8.636;2023-11-18T13:18:18;101223.06;;;9.55;100.00
10060;BME280;5069;49.306;8.636;2023-11-18T13:21:21;101211.69;;;9.51;100.00
10060;BME280;5069;49.306;8.636;2023-11-18T13:24:27;101192.34;;;9.56;100.00
10060;BME280;5069;49.306;8.636;2023-11-18T13:27:28;101178.28;;;9.57;100.00
10060;BME280;5069;49.306;8.636;2023-11-18T13:30:30;101173.88;;;9.57;100.00
10060;BME280;5069;49.306;8.636;2023-11-18T13:33:32;101171.38;;;9.49;100.00
10060;BME280;5069;49.306;8.636;2023-11-18T13:36:35;101162.38;;;9.63;100.00
10060;BME280;5069;49.306;8.636;2023-11-18T13:39:36;101158.06;;;9.57;100.00
10060;BME280;5069;49.306;8.636;2023-11-18T13:42:42;101159.88;;;9.55;100.00
10060;BME280;5069;49.306;8.636;2023-11-18T13:45:52;101158.06;;;9.59;100.00
10060;BME280;5069;49.306;8.636;2023-11-18T13:48:54;101143.97;;;9.61;100.00
10060;BME280;5069;49.306;8.636;2023-11-18T13:51:56;101131.75;;;9.57;100.00
10060;BME280;5069;49.306;8.636;2023-11-18T13:54:58;101124.63;;;9.64;100.00
10060;BME280;5069;49.306;8.636;2023-11-18T13:58:01;101115.03;;;9.61;100.00
10060;BME280;5069;49.306;8.636;2023-11-18T14:01:05;101112.31;;;9.64;100.00
10060;BME280;5069;49.306;8.636;2023-11-18T14:04:10;101121.16;;;9.62;100.00
10060;BME280;5069;49.306;8.636;2023-11-18T14:07:14;101112.41;;;9.60;100.00
10060;BME280;5069;49.306;8.636;2023-11-18T14:10:18;101109.72;;;9.63;100.00
10060;BME280;5069;49.306;8.636;2023-11-18T14:13:20;101118.47;;;9.63;100.00
10060;BME280;5069;49.306;8.636;2023-11-18T14:16:23;101109.69;;;9.66;100.00
10060;BME280;5069;49.306;8.636;2023-11-18T14:19:25;101121.09;;;9.65;100.00
10060;BME280;5069;49.306;8.636;2023-11-18T14:22:27;101130.91;;;9.57;100.00
10060;BME280;5069;49.306;8.636;2023-11-18T14:25:30;101112.41;;;9.61;100.00
10060;BME280;5069;49.306;8.636;2023-11-18T14:28:31;101109.91;;;9.53;100.00
10060;BME280;5069;49.306;8.636;2023-11-18T14:31:36;101125.69;;;9.53;100.00
10060;BME280;5069;49.306;8.636;2023-11-18T14:34:37;101117.81;;;9.52;100.00
10060;BME280;5069;49.306;8.636;2023-11-18T14:37:39;101124.91;;;9.48;100.00
10060;BME280;5069;49.306;8.636;2023-11-18T14:40:45;101122.19;;;9.51;100.00
10060;BME280;5069;49.306;8.636;2023-11-18T14:43:47;101120.44;;;9.52;100.00
10060;BME280;5069;49.306;8.636;2023-11-18T14:46:49;101131.06;;;9.47;100.00
10060;BME280;5069;49.306;8.636;2023-11-18T14:49:50;101134.56;;;9.46;100.00
10060;BME280;5069;49.306;8.636;2023-11-18T14:52:52;101142.41;;;9.51;100.00
10060;BME280;5069;49.306;8.636;2023-11-18T14:56:00;101149.19;;;9.63;100.00
10060;BME280;5069;49.306;8.636;2023-11-18T14:59:02;101141.47;;;9.53;100.00
10060;BME280;5069;49.306;8.636;2023-11-18T15:02:06;101136.28;;;9.50;100.00
10060;BME280;5069;49.306;8.636;2023-11-18T15:05:09;101138.06;;;9.48;100.00
10060;BME280;5069;49.306;8.636;2023-11-18T15:08:11;101129.31;;;9.46;100.00
10060;BME280;5069;49.306;8.636;2023-11-18T15:11:21;101118.78;;;9.46;100.00
10060;BME280;5069;49.306;8.636;2023-11-18T15:14:22;101113.59;;;9.43;100.00
10060;BME280;5069;49.306;8.636;2023-11-18T15:17:26;101121.56;;;9.39;100.00
10060;BME280;5069;49.306;8.636;2023-11-18T15:20:44;101118.03;;;9.40;100.00
10060;BME280;5069;49.306;8.636;2023-11-18T15:23:48;101132.03;;;9.42;100.00
10060;BME280;5069;49.306;8.636;2023-11-18T15:26:51;101119.72;;;9.44;100.00
10060;BME280;5069;49.306;8.636;2023-11-18T15:29:53;101110.06;;;9.44;100.00
10060;BME280;5069;49.306;8.636;2023-11-18T15:32:55;101095.16;;;9.45;100.00
10060;BME280;5069;49.306;8.636;2023-11-18T15:35:57;101086.41;;;9.43;100.00
10060;BME280;5069;49.306;8.636;2023-11-18T15:38:59;101081.13;;;9.43;100.00
10060;BME280;5069;49.306;8.636;2023-11-18T15:42:04;101076.84;;;9.37;100.00
10060;BME280;5069;49.306;8.636;2023-11-18T15:45:11;101068.97;;;9.37;100.00
10060;BME280;5069;49.306;8.636;2023-11-18T15:48:13;101061.06;;;9.37;100.00
10060;BME280;5069;49.306;8.636;2023-11-18T15:51:15;101057.59;;;9.35;100.00
10060;BME280;5069;49.306;8.636;2023-11-18T15:54:17;101048.88;;;9.33;100.00
10060;BME280;5069;49.306;8.636;2023-11-18T15:57:20;101056.81;;;9.29;100.00
10060;BME280;5069;49.306;8.636;2023-11-18T16:00:24;101040.22;;;9.27;100.00
10060;BME280;5069;49.306;8.636;2023-11-18T16:03:26;101026.13;;;9.29;100.00
10060;BME280;5069;49.306;8.636;2023-11-18T16:06:29;101014.78;;;9.27;100.00
10060;BME280;5069;49.306;8.636;2023-11-18T16:09:31;101021.81;;;9.25;100.00
10060;BME280;5069;49.306;8.636;2023-11-18T16:12:32;101011.38;;;9.21;100.00
10060;BME280;5069;49.306;8.636;2023-11-18T16:15:34;101003.50;;;9.19;100.00
10060;BME280;5069;49.306;8.636;2023-11-18T16:18:35;100996.25;;;9.33;100.00
10060;BME280;5069;49.306;8.636;2023-11-18T16:21:37;101008.31;;;9.43;100.00
10060;BME280;5069;49.306;8.636;2023-11-18T16:24:39;101001.19;;;9.50;100.00
10060;BME280;5069;49.306;8.636;2023-11-18T16:27:40;100999.44;;;9.50;100.00
10060;BME280;5069;49.306;8.636;2023-11-18T16:30:41;100997.56;;;9.56;100.00
10060;BME280;5069;49.306;8.636;2023-11-18T16:33:43;101000.84;;;9.67;100.00
10060;BME280;5069;49.306;8.636;2023-11-18T16:36:46;100989.56;;;9.60;100.00